createdAt,value
2023-04-18T00:02:45.256Z,102620
2023-04-18T00:07:45.149Z,102630
2023-04-18T00:12:45.170Z,102630
2023-04-18T00:22:45.206Z,102630
2023-04-18T00:27:45.187Z,102630
2023-04-18T00:32:45.207Z,102630
2023-04-18T00:37:45.179Z,102630
2023-04-18T00:47:45.198Z,102620
2023-04-18T00:52:45.178Z,102620
2023-04-18T00:57:45.205Z,102610
2023-04-18T01:02:45.354Z,102610
2023-04-18T01:12:45.366Z,102620
2023-04-18T01:17:45.260Z,102620
2023-04-18T01:22:45.219Z,102620
2023-04-18T01:27:45.190Z,102610
2023-04-18T01:32:45.262Z,102610
2023-04-18T01:37:45.190Z,102600
2023-04-18T01:57:45.220Z,102600
2023-04-18T02:02:45.364Z,102590
2023-04-18T02:07:45.216Z,102600
2023-04-18T02:12:45.226Z,102590
2023-04-18T02:22:45.223Z,102590
2023-04-18T02:27:45.207Z,102590
2023-04-18T02:37:45.211Z,102590
2023-04-18T02:42:45.237Z,102600
2023-04-18T02:47:54.778Z,102580
2023-04-18T02:52:45.220Z,102590
2023-04-18T02:57:45.251Z,102590
2023-04-18T03:02:45.313Z,102590
2023-04-18T03:07:45.225Z,102590
2023-04-18T03:12:45.245Z,102590
2023-04-18T03:17:45.314Z,102590
2023-04-18T03:22:45.218Z,102590
2023-04-18T03:27:45.247Z,102590
2023-04-18T03:32:45.287Z,102580
2023-04-18T03:37:45.227Z,102580
2023-04-18T03:42:45.327Z,102580
2023-04-18T03:57:45.246Z,102590
2023-04-18T04:02:45.453Z,102590
2023-04-18T04:07:45.340Z,102590
2023-04-18T04:12:45.283Z,102590
2023-04-18T04:17:45.294Z,102590
2023-04-18T04:22:45.243Z,102590
2023-04-18T04:27:45.261Z,102590
2023-04-18T04:32:45.277Z,102590
2023-04-18T04:37:45.253Z,102580
2023-04-18T04:42:45.252Z,102590
2023-04-18T04:47:45.271Z,102590
2023-04-18T05:07:45.271Z,102610
2023-04-18T05:12:45.293Z,102610
2023-04-18T05:22:45.249Z,102610
2023-04-18T05:27:45.276Z,102610
2023-04-18T05:32:45.273Z,102610
2023-04-18T05:37:45.288Z,102620
2023-04-18T05:42:45.324Z,102620
2023-04-18T05:47:45.303Z,102630
2023-04-18T05:52:45.293Z,102630
2023-04-18T05:57:45.311Z,102630
2023-04-18T06:02:45.364Z,102640
2023-04-18T06:07:45.280Z,102640
2023-04-18T06:12:45.292Z,102640
2023-04-18T06:17:45.328Z,102640
2023-04-18T06:22:45.289Z,102640
2023-04-18T06:27:45.284Z,102650
2023-04-18T06:32:45.341Z,102640
2023-04-18T06:37:45.280Z,102650
2023-04-18T06:47:45.312Z,102660
2023-04-18T06:52:45.287Z,102660
2023-04-18T06:57:45.389Z,102660
2023-04-18T07:02:45.401Z,102660
2023-04-18T07:07:45.313Z,102660
2023-04-18T07:12:45.375Z,102670
2023-04-18T07:17:45.339Z,102680
2023-04-18T07:22:45.342Z,102670
2023-04-18T07:27:45.318Z,102680
2023-04-18T07:32:45.316Z,102680
2023-04-18T07:37:45.322Z,102690
2023-04-18T07:42:45.313Z,102690
2023-04-18T07:47:47.060Z,102690
2023-04-18T07:52:45.307Z,102690
2023-04-18T07:57:46.452Z,102690
2023-04-18T08:02:45.462Z,102690
2023-04-18T08:07:45.319Z,102700
2023-04-18T08:12:45.351Z,102690
2023-04-18T08:17:45.388Z,102700
2023-04-18T08:23:02.309Z,102690
2023-04-18T08:27:45.341Z,102690
2023-04-18T08:32:45.367Z,102700
2023-04-18T08:37:45.325Z,102700
2023-04-18T08:42:45.331Z,102700
2023-04-18T08:47:45.409Z,102700
2023-04-18T08:52:45.336Z,102710
2023-04-18T08:57:45.338Z,102710
2023-04-18T09:02:45.447Z,102710
2023-04-18T09:07:45.348Z,102720
2023-04-18T09:12:45.357Z,102710
2023-04-18T09:17:45.351Z,102710
2023-04-18T09:22:45.328Z,102710
2023-04-18T09:27:45.352Z,102710
2023-04-18T09:32:45.380Z,102710
2023-04-18T09:37:45.328Z,102710
2023-04-18T09:42:45.358Z,102720
2023-04-18T09:52:45.340Z,102700
2023-04-18T09:57:45.360Z,102700
2023-04-18T10:02:45.428Z,102690
2023-04-18T10:07:45.354Z,102680
2023-04-18T10:12:45.400Z,102680
2023-04-18T10:17:56.201Z,102680
2023-04-18T10:22:45.350Z,102680
2023-04-18T10:27:45.374Z,102680
2023-04-18T10:32:45.378Z,102690
2023-04-18T10:37:45.378Z,102690
2023-04-18T10:42:45.383Z,102690
2023-04-18T10:47:45.528Z,102680
2023-04-18T10:57:45.410Z,102680
2023-04-18T11:02:46.600Z,102660
2023-04-18T11:07:45.373Z,102660
2023-04-18T11:12:45.363Z,102650
2023-04-18T11:17:45.400Z,102660
2023-04-18T11:22:45.373Z,102660
2023-04-18T11:27:45.388Z,102650
2023-04-18T11:32:45.403Z,102640
2023-04-18T11:37:45.417Z,102640
2023-04-18T11:47:45.388Z,102650
2023-04-18T11:52:45.412Z,102650
2023-04-18T12:02:45.496Z,102650
2023-04-18T12:07:45.414Z,102660
2023-04-18T12:12:45.374Z,102650
2023-04-18T12:17:45.464Z,102650
2023-04-18T12:22:45.399Z,102630
2023-04-18T12:27:45.394Z,102640
2023-04-18T12:32:45.426Z,102630
2023-04-18T12:37:45.405Z,102630
2023-04-18T12:42:45.417Z,102630
2023-04-18T12:47:45.409Z,102630
2023-04-18T12:52:45.414Z,102630
2023-04-18T12:57:45.439Z,102630
2023-04-18T13:02:45.518Z,102630
2023-04-18T13:07:45.415Z,102630
2023-04-18T13:12:45.453Z,102630
2023-04-18T13:17:45.446Z,102630
2023-04-18T13:22:45.415Z,102630
2023-04-18T13:27:45.430Z,102640
2023-04-18T13:32:45.441Z,102630
2023-04-18T13:37:45.423Z,102630
2023-04-18T13:42:45.427Z,102620
2023-04-18T13:47:45.489Z,102610
2023-04-18T13:52:45.427Z,102600
2023-04-18T13:57:45.425Z,102610
2023-04-18T14:02:45.487Z,102620
2023-04-18T14:07:45.428Z,102620
2023-04-18T14:12:45.422Z,102610
2023-04-18T14:17:46.066Z,102590
2023-04-18T14:22:45.427Z,102610
2023-04-18T14:27:45.438Z,102610
2023-04-18T14:32:45.460Z,102600
2023-04-18T14:37:45.443Z,102600
2023-04-18T14:42:45.453Z,102600
2023-04-18T14:47:45.488Z,102600
2023-04-18T14:52:45.479Z,102580
2023-04-18T14:57:45.459Z,102580
2023-04-18T15:02:45.584Z,102580
2023-04-18T15:07:46.634Z,102590
2023-04-18T15:12:45.451Z,102590
2023-04-18T15:17:45.451Z,102580
2023-04-18T15:27:45.457Z,102580
2023-04-18T15:32:45.505Z,102570
2023-04-18T15:37:45.466Z,102570
2023-04-18T15:42:45.483Z,102570
2023-04-18T15:47:45.461Z,102570
2023-04-18T15:52:45.464Z,102570
2023-04-18T15:57:45.460Z,102570
2023-04-18T16:02:45.850Z,102570
2023-04-18T16:07:45.490Z,102560
2023-04-18T16:12:45.457Z,102560
2023-04-18T16:17:45.519Z,102550
2023-04-18T16:22:45.475Z,102550
2023-04-18T16:27:45.475Z,102550
2023-04-18T16:32:45.517Z,102560
2023-04-18T16:37:45.462Z,102560
2023-04-18T16:47:45.537Z,102560
2023-04-18T16:52:45.488Z,102560
2023-04-18T17:02:45.536Z,102560
2023-04-18T17:07:45.486Z,102550
2023-04-18T17:12:45.475Z,102550
2023-04-18T17:17:45.521Z,102550
2023-04-18T17:22:45.515Z,102550
2023-04-18T17:37:45.502Z,102560
2023-04-18T17:47:45.519Z,102560
2023-04-18T17:52:45.508Z,102560
2023-04-18T18:02:45.647Z,102570
2023-04-18T18:12:45.528Z,102570
2023-04-18T18:22:46.949Z,102570
2023-04-18T18:27:45.537Z,102570
2023-04-18T18:32:45.578Z,102580
2023-04-18T18:37:45.584Z,102590
2023-04-18T18:42:45.533Z,102600
2023-04-18T18:47:46.737Z,102600
2023-04-18T18:52:45.519Z,102600
2023-04-18T18:57:45.531Z,102610
2023-04-18T19:02:45.647Z,102610
2023-04-18T19:07:45.525Z,102620
2023-04-18T19:12:45.525Z,102620
2023-04-18T19:17:45.603Z,102630
2023-04-18T19:32:45.565Z,102640
2023-04-18T19:37:45.574Z,102650
2023-04-18T19:42:45.585Z,102650
2023-04-18T19:47:45.569Z,102650
2023-04-18T19:52:45.516Z,102660
2023-04-18T20:02:45.679Z,102660
2023-04-18T20:07:45.525Z,102660
2023-04-18T20:17:45.568Z,102670
2023-04-18T20:22:45.554Z,102670
2023-04-18T20:37:45.563Z,102680
2023-04-18T20:42:45.580Z,102680
2023-04-18T20:57:45.542Z,102690
2023-04-18T21:07:45.929Z,102690
2023-04-18T21:12:45.578Z,102700
2023-04-18T21:17:45.581Z,102710
2023-04-18T21:37:45.574Z,102710
2023-04-18T21:52:45.582Z,102720
2023-04-18T21:57:45.577Z,102720
2023-04-18T22:07:54.891Z,102720
2023-04-18T22:12:45.565Z,102720
2023-04-18T22:17:45.633Z,102720
2023-04-18T22:22:45.590Z,102720
2023-04-18T22:27:45.586Z,102720
2023-04-18T22:32:45.622Z,102720
2023-04-18T22:42:45.619Z,102720
2023-04-18T22:47:45.689Z,102720
2023-04-18T22:52:45.589Z,102720
2023-04-18T22:57:45.606Z,102720
2023-04-18T23:02:45.692Z,102720
2023-04-18T23:07:45.618Z,102720
2023-04-18T23:12:45.635Z,102720
2023-04-18T23:17:45.676Z,102720
2023-04-18T23:22:45.633Z,102720
2023-04-18T23:27:45.592Z,102720
2023-04-18T23:32:45.680Z,102720
2023-04-18T23:37:45.610Z,102720
2023-04-18T23:42:45.597Z,102710
2023-04-18T23:52:45.602Z,102710
